<?xml version='1.0' encoding='UTF-8'?><gpx version="1.1" creator="JPX - https://github.com/jenetics/jpx" xmlns="http://www.topografix.com/GPX/1/1"><trk><trkseg><trkpt lat="45.7602326" lon="11.7759694"><ele>115.0</ele><time>2026-05-03T05:53:53.313Z</time></trkpt><trkpt lat="45.7603236" lon="11.7758403"><ele>115.0</ele><time>2026-05-03T05:53:54.323Z</time></trkpt><trkpt lat="45.7604043" lon="11.7758009"><ele>115.0</ele><time>2026-05-03T05:53:55.322Z</time></trkpt><trkpt lat="45.7604882" lon="11.7757745"><ele>115.0</ele><time>2026-05-03T05:53:56.322Z</time></trkpt><trkpt lat="45.7605779" lon="11.7757488"><ele>115.0</ele><time>2026-05-03T05:53:57.322Z</time></trkpt><trkpt lat="45.7606753" lon="11.7757178"><ele>115.0</ele><time>2026-05-03T05:53:58.322Z</time></trkpt><trkpt lat="45.7607834" lon="11.7756822"><ele>115.0</ele><time>2026-05-03T05:53:59.321Z</time></trkpt><trkpt lat="45.7609064" lon="11.7756422"><ele>115.0</ele><time>2026-05-03T05:54:00.322Z</time></trkpt><trkpt lat="45.7610487" lon="11.7755954"><ele>115.0</ele><time>2026-05-03T05:54:01.322Z</time></trkpt><trkpt lat="45.7612038" lon="11.7755437"><ele>114.75</ele><time>2026-05-03T05:54:02.322Z</time></trkpt><trkpt lat="45.7613529" lon="11.7754993"><ele>114.5</ele><time>2026-05-03T05:54:03.322Z</time></trkpt><trkpt lat="45.7614901" lon="11.7754582"><ele>114.25</ele><time>2026-05-03T05:54:04.321Z</time></trkpt><trkpt lat="45.7616191" lon="11.7754179"><ele>114.0</ele><time>2026-05-03T05:54:05.322Z</time></trkpt><trkpt lat="45.7617365" lon="11.7753752"><ele>114.0</ele><time>2026-05-03T05:54:06.322Z</time></trkpt><trkpt lat="45.7618475" lon="11.7753355"><ele>114.0</ele><time>2026-05-03T05:54:07.323Z</time></trkpt><trkpt lat="45.7619605" lon="11.7753008"><ele>114.0</ele><time>2026-05-03T05:54:08.322Z</time></trkpt><trkpt lat="45.7620694" lon="11.7752688"><ele>114.0</ele><time>2026-05-03T05:54:09.323Z</time></trkpt><trkpt lat="45.7621629" lon="11.7752425"><ele>114.0</ele><time>2026-05-03T05:54:10.322Z</time></trkpt><trkpt lat="45.7622464" lon="11.7752211"><ele>114.0</ele><time>2026-05-03T05:54:11.322Z</time></trkpt><trkpt lat="45.7623167" lon="11.775198"><ele>114.0</ele><time>2026-05-03T05:54:12.322Z</time></trkpt><trkpt lat="45.7623875" lon="11.7751905"><ele>114.0</ele><time>2026-05-03T05:54:13.321Z</time></trkpt><trkpt lat="45.7624659" lon="11.7751975"><ele>114.0</ele><time>2026-05-03T05:54:14.322Z</time></trkpt><trkpt lat="45.7625459" lon="11.7751989"><ele>114.0</ele><time>2026-05-03T05:54:15.322Z</time></trkpt><trkpt lat="45.7626215" lon="11.7751763"><ele>114.0</ele><time>2026-05-03T05:54:16.323Z</time></trkpt><trkpt lat="45.762698" lon="11.7751212"><ele>114.0</ele><time>2026-05-03T05:54:17.322Z</time></trkpt><trkpt lat="45.7627848" lon="11.7750638"><ele>114.0</ele><time>2026-05-03T05:54:18.322Z</time></trkpt><trkpt lat="45.7628775" lon="11.7750184"><ele>114.0</ele><time>2026-05-03T05:54:19.323Z</time></trkpt><trkpt lat="45.7629889" lon="11.7749866"><ele>114.0</ele><time>2026-05-03T05:54:20.321Z</time></trkpt><trkpt lat="45.7631256" lon="11.7749463"><ele>114.0</ele><time>2026-05-03T05:54:21.322Z</time></trkpt><trkpt lat="45.7632733" lon="11.7748966"><ele>114.0</ele><time>2026-05-03T05:54:22.323Z</time></trkpt><trkpt lat="45.7634208" lon="11.774849"><ele>114.0</ele><time>2026-05-03T05:54:23.322Z</time></trkpt><trkpt lat="45.7635674" lon="11.7748047"><ele>114.0</ele><time>2026-05-03T05:54:24.321Z</time></trkpt><trkpt lat="45.7637176" lon="11.7747598"><ele>115.0</ele><time>2026-05-03T05:54:25.321Z</time></trkpt><trkpt lat="45.7638667" lon="11.7747195"><ele>116.0</ele><time>2026-05-03T05:54:26.322Z</time></trkpt><trkpt lat="45.7640225" lon="11.7746691"><ele>117.0</ele><time>2026-05-03T05:54:27.321Z</time></trkpt><trkpt lat="45.7641779" lon="11.774613"><ele>117.0</ele><time>2026-05-03T05:54:28.322Z</time></trkpt><trkpt lat="45.7643302" lon="11.7745659"><ele>117.0</ele><time>2026-05-03T05:54:29.32Z</time></trkpt><trkpt lat="45.7644859" lon="11.7745173"><ele>117.0</ele><time>2026-05-03T05:54:30.322Z</time></trkpt><trkpt lat="45.7646488" lon="11.7744643"><ele>117.0</ele><time>2026-05-03T05:54:31.322Z</time></trkpt><trkpt lat="45.7648089" lon="11.7744161"><ele>117.0</ele><time>2026-05-03T05:54:32.322Z</time></trkpt><trkpt lat="45.7649674" lon="11.7743723"><ele>117.0</ele><time>2026-05-03T05:54:33.321Z</time></trkpt><trkpt lat="45.7651197" lon="11.774326"><ele>117.66666666666666</ele><time>2026-05-03T05:54:34.322Z</time></trkpt><trkpt lat="45.7652717" lon="11.7743033"><ele>118.33333333333333</ele><time>2026-05-03T05:54:35.321Z</time></trkpt><trkpt lat="45.7654218" lon="11.7743103"><ele>119.0</ele><time>2026-05-03T05:54:36.321Z</time></trkpt><trkpt lat="45.7655701" lon="11.7743393"><ele>118.66666666666666</ele><time>2026-05-03T05:54:37.321Z</time></trkpt><trkpt lat="45.7657157" lon="11.7744034"><ele>118.33333333333334</ele><time>2026-05-03T05:54:38.321Z</time></trkpt><trkpt lat="45.7658568" lon="11.774475"><ele>118.0</ele><time>2026-05-03T05:54:39.322Z</time></trkpt><trkpt lat="45.7659951" lon="11.7745647"><ele>119.0</ele><time>2026-05-03T05:54:40.322Z</time></trkpt><trkpt lat="45.7661342" lon="11.774663"><ele>120.0</ele><time>2026-05-03T05:54:41.322Z</time></trkpt><trkpt lat="45.7662651" lon="11.7747593"><ele>121.0</ele><time>2026-05-03T05:54:42.321Z</time></trkpt><trkpt lat="45.766382" lon="11.7748786"><ele>122.0</ele><time>2026-05-03T05:54:43.321Z</time></trkpt><trkpt lat="45.7664787" lon="11.7750214"><ele>122.0</ele><time>2026-05-03T05:54:44.322Z</time></trkpt><trkpt lat="45.76656" lon="11.7751831"><ele>122.0</ele><time>2026-05-03T05:54:45.322Z</time></trkpt><trkpt lat="45.7666105" lon="11.7753664"><ele>122.0</ele><time>2026-05-03T05:54:46.322Z</time></trkpt><trkpt lat="45.7666556" lon="11.7755284"><ele>122.0</ele><time>2026-05-03T05:54:47.322Z</time></trkpt><trkpt lat="45.7667037" lon="11.7756588"><ele>121.8</ele><time>2026-05-03T05:54:48.323Z</time></trkpt><trkpt lat="45.7667599" lon="11.7757449"><ele>121.6</ele><time>2026-05-03T05:54:49.322Z</time></trkpt><trkpt lat="45.7668382" lon="11.7757934"><ele>121.39999999999999</ele><time>2026-05-03T05:54:50.322Z</time></trkpt><trkpt lat="45.7669261" lon="11.7757879"><ele>121.19999999999999</ele><time>2026-05-03T05:54:51.321Z</time></trkpt><trkpt lat="45.7670205" lon="11.7757418"><ele>121.0</ele><time>2026-05-03T05:54:52.321Z</time></trkpt><trkpt lat="45.7671308" lon="11.7756522"><ele>121.0</ele><time>2026-05-03T05:54:53.322Z</time></trkpt><trkpt lat="45.7672438" lon="11.7755669"><ele>121.0</ele><time>2026-05-03T05:54:54.321Z</time></trkpt><trkpt lat="45.7673713" lon="11.7754716"><ele>121.0</ele><time>2026-05-03T05:54:55.321Z</time></trkpt><trkpt lat="45.7674881" lon="11.7753896"><ele>121.0</ele><time>2026-05-03T05:54:56.322Z</time></trkpt><trkpt lat="45.7675936" lon="11.7753193"><ele>121.0</ele><time>2026-05-03T05:54:57.322Z</time></trkpt><trkpt lat="45.7676873" lon="11.775243"><ele>121.0</ele><time>2026-05-03T05:54:58.322Z</time></trkpt><trkpt lat="45.7677797" lon="11.7751871"><ele>121.0</ele><time>2026-05-03T05:54:59.321Z</time></trkpt><trkpt lat="45.7678603" lon="11.7751335"><ele>121.0</ele><time>2026-05-03T05:55:00.322Z</time></trkpt><trkpt lat="45.767935" lon="11.7750958"><ele>121.0</ele><time>2026-05-03T05:55:01.323Z</time></trkpt><trkpt lat="45.7680115" lon="11.7750518"><ele>121.0</ele><time>2026-05-03T05:55:02.321Z</time></trkpt><trkpt lat="45.7680914" lon="11.775008"><ele>121.0</ele><time>2026-05-03T05:55:03.323Z</time></trkpt><trkpt lat="45.7681649" lon="11.7749611"><ele>121.0</ele><time>2026-05-03T05:55:04.322Z</time></trkpt><trkpt lat="45.7682628" lon="11.7749377"><ele>121.0</ele><time>2026-05-03T05:55:05.322Z</time></trkpt><trkpt lat="45.7683658" lon="11.7749153"><ele>121.0</ele><time>2026-05-03T05:55:06.323Z</time></trkpt><trkpt lat="45.7684782" lon="11.7748872"><ele>120.75</ele><time>2026-05-03T05:55:07.322Z</time></trkpt><trkpt lat="45.7685944" lon="11.7748592"><ele>120.5</ele><time>2026-05-03T05:55:08.322Z</time></trkpt><trkpt lat="45.7687293" lon="11.7748122"><ele>120.25</ele><time>2026-05-03T05:55:09.321Z</time></trkpt><trkpt lat="45.7688842" lon="11.7747788"><ele>120.0</ele><time>2026-05-03T05:55:10.323Z</time></trkpt><trkpt lat="45.7690352" lon="11.7747498"><ele>120.0</ele><time>2026-05-03T05:55:11.323Z</time></trkpt><trkpt lat="45.7691894" lon="11.7747061"><ele>120.0</ele><time>2026-05-03T05:55:12.321Z</time></trkpt><trkpt lat="45.7693469" lon="11.7746505"><ele>120.0</ele><time>2026-05-03T05:55:13.321Z</time></trkpt><trkpt lat="45.769506" lon="11.7745763"><ele>121.0</ele><time>2026-05-03T05:55:14.321Z</time></trkpt><trkpt lat="45.7696778" lon="11.774489"><ele>122.0</ele><time>2026-05-03T05:55:15.32Z</time></trkpt><trkpt lat="45.7698551" lon="11.7743911"><ele>123.0</ele><time>2026-05-03T05:55:16.323Z</time></trkpt><trkpt lat="45.77003" lon="11.7743077"><ele>123.0</ele><time>2026-05-03T05:55:17.323Z</time></trkpt><trkpt lat="45.7701986" lon="11.7742234"><ele>123.0</ele><time>2026-05-03T05:55:18.322Z</time></trkpt><trkpt lat="45.7703641" lon="11.7741391"><ele>123.0</ele><time>2026-05-03T05:55:19.321Z</time></trkpt><trkpt lat="45.7705266" lon="11.7740548"><ele>123.0</ele><time>2026-05-03T05:55:20.322Z</time></trkpt><trkpt lat="45.7706897" lon="11.7739684"><ele>123.0</ele><time>2026-05-03T05:55:21.321Z</time></trkpt><trkpt lat="45.7708485" lon="11.773875"><ele>123.0</ele><time>2026-05-03T05:55:22.322Z</time></trkpt><trkpt lat="45.7710074" lon="11.7737913"><ele>122.66666666666666</ele><time>2026-05-03T05:55:23.322Z</time></trkpt><trkpt lat="45.7711597" lon="11.7737116"><ele>122.33333333333333</ele><time>2026-05-03T05:55:24.322Z</time></trkpt><trkpt lat="45.7713103" lon="11.7736269"><ele>122.0</ele><time>2026-05-03T05:55:25.322Z</time></trkpt><trkpt lat="45.7714678" lon="11.7735427"><ele>122.33333333333333</ele><time>2026-05-03T05:55:26.321Z</time></trkpt><trkpt lat="45.7716226" lon="11.7734581"><ele>122.66666666666666</ele><time>2026-05-03T05:55:27.321Z</time></trkpt><trkpt lat="45.7717792" lon="11.7733735"><ele>123.0</ele><time>2026-05-03T05:55:28.323Z</time></trkpt><trkpt lat="45.77194" lon="11.7732845"><ele>123.66666666666666</ele><time>2026-05-03T05:55:29.322Z</time></trkpt><trkpt lat="45.7720991" lon="11.7732043"><ele>124.33333333333333</ele><time>2026-05-03T05:55:30.32Z</time></trkpt><trkpt lat="45.7722602" lon="11.7731159"><ele>125.0</ele><time>2026-05-03T05:55:31.322Z</time></trkpt><trkpt lat="45.77242" lon="11.773025"><ele>125.0</ele><time>2026-05-03T05:55:32.322Z</time></trkpt><trkpt lat="45.772576" lon="11.7729352"><ele>125.0</ele><time>2026-05-03T05:55:33.323Z</time></trkpt><trkpt lat="45.7727332" lon="11.7728429"><ele>125.0</ele><time>2026-05-03T05:55:34.322Z</time></trkpt><trkpt lat="45.7728953" lon="11.7727484"><ele>124.66666666666666</ele><time>2026-05-03T05:55:35.323Z</time></trkpt><trkpt lat="45.773061" lon="11.7726547"><ele>124.33333333333334</ele><time>2026-05-03T05:55:36.322Z</time></trkpt><trkpt lat="45.7732265" lon="11.7725668"><ele>124.0</ele><time>2026-05-03T05:55:37.322Z</time></trkpt><trkpt lat="45.7733836" lon="11.7724897"><ele>124.33333333333334</ele><time>2026-05-03T05:55:38.322Z</time></trkpt><trkpt lat="45.773541" lon="11.7724082"><ele>124.66666666666666</ele><time>2026-05-03T05:55:39.322Z</time></trkpt><trkpt lat="45.7736848" lon="11.7723424"><ele>125.0</ele><time>2026-05-03T05:55:40.322Z</time></trkpt><trkpt lat="45.7738255" lon="11.7722761"><ele>125.0</ele><time>2026-05-03T05:55:41.322Z</time></trkpt><trkpt lat="45.7739491" lon="11.7722071"><ele>125.0</ele><time>2026-05-03T05:55:42.322Z</time></trkpt><trkpt lat="45.7740558" lon="11.7721245"><ele>125.0</ele><time>2026-05-03T05:55:43.321Z</time></trkpt><trkpt lat="45.7741389" lon="11.7720384"><ele>125.0</ele><time>2026-05-03T05:55:44.322Z</time></trkpt><trkpt lat="45.7741945" lon="11.7719125"><ele>125.2</ele><time>2026-05-03T05:55:45.321Z</time></trkpt><trkpt lat="45.7742237" lon="11.7717767"><ele>125.4</ele><time>2026-05-03T05:55:46.323Z</time></trkpt><trkpt lat="45.7742342" lon="11.7716353"><ele>125.6</ele><time>2026-05-03T05:55:47.322Z</time></trkpt><trkpt lat="45.7742632" lon="11.7715136"><ele>125.8</ele><time>2026-05-03T05:55:48.321Z</time></trkpt><trkpt lat="45.7743167" lon="11.7714257"><ele>126.0</ele><time>2026-05-03T05:55:49.322Z</time></trkpt><trkpt lat="45.7743978" lon="11.7713664"><ele>125.75</ele><time>2026-05-03T05:55:50.32Z</time></trkpt><trkpt lat="45.7744757" lon="11.7712865"><ele>125.5</ele><time>2026-05-03T05:55:51.322Z</time></trkpt><trkpt lat="45.7745493" lon="11.7711644"><ele>125.25</ele><time>2026-05-03T05:55:52.322Z</time></trkpt><trkpt lat="45.7746435" lon="11.7710444"><ele>125.0</ele><time>2026-05-03T05:55:53.323Z</time></trkpt><trkpt lat="45.7747646" lon="11.7709476"><ele>125.0</ele><time>2026-05-03T05:55:54.321Z</time></trkpt><trkpt lat="45.7749011" lon="11.7708686"><ele>125.0</ele><time>2026-05-03T05:55:55.322Z</time></trkpt><trkpt lat="45.7750465" lon="11.7707955"><ele>125.0</ele><time>2026-05-03T05:55:56.321Z</time></trkpt><trkpt lat="45.7752273" lon="11.7707007"><ele>125.33333333333333</ele><time>2026-05-03T05:55:57.321Z</time></trkpt><trkpt lat="45.775393" lon="11.7706173"><ele>125.66666666666666</ele><time>2026-05-03T05:55:58.321Z</time></trkpt><trkpt lat="45.7755569" lon="11.7705451"><ele>126.0</ele><time>2026-05-03T05:55:59.321Z</time></trkpt><trkpt lat="45.7757185" lon="11.7704701"><ele>126.0</ele><time>2026-05-03T05:56:00.323Z</time></trkpt><trkpt lat="45.7758905" lon="11.7704065"><ele>126.0</ele><time>2026-05-03T05:56:01.32Z</time></trkpt><trkpt lat="45.7760609" lon="11.7703597"><ele>126.0</ele><time>2026-05-03T05:56:02.323Z</time></trkpt><trkpt lat="45.7762363" lon="11.7703228"><ele>126.0</ele><time>2026-05-03T05:56:03.322Z</time></trkpt><trkpt lat="45.7764108" lon="11.7702885"><ele>126.0</ele><time>2026-05-03T05:56:04.323Z</time></trkpt><trkpt lat="45.7765844" lon="11.7702648"><ele>126.0</ele><time>2026-05-03T05:56:05.322Z</time></trkpt><trkpt lat="45.7767581" lon="11.7702392"><ele>126.0</ele><time>2026-05-03T05:56:06.322Z</time></trkpt><trkpt lat="45.7769274" lon="11.7702053"><ele>126.0</ele><time>2026-05-03T05:56:07.323Z</time></trkpt><trkpt lat="45.7770876" lon="11.7701457"><ele>126.0</ele><time>2026-05-03T05:56:08.322Z</time></trkpt><trkpt lat="45.7772252" lon="11.7700546"><ele>126.5</ele><time>2026-05-03T05:56:09.323Z</time></trkpt><trkpt lat="45.7773669" lon="11.7699588"><ele>127.0</ele><time>2026-05-03T05:56:10.323Z</time></trkpt><trkpt lat="45.7775076" lon="11.7698873"><ele>127.5</ele><time>2026-05-03T05:56:11.322Z</time></trkpt><trkpt lat="45.7776423" lon="11.7698287"><ele>128.0</ele><time>2026-05-03T05:56:12.323Z</time></trkpt><trkpt lat="45.7777756" lon="11.7697865"><ele>128.0</ele><time>2026-05-03T05:56:13.321Z</time></trkpt><trkpt lat="45.7778956" lon="11.7697727"><ele>128.0</ele><time>2026-05-03T05:56:14.321Z</time></trkpt><trkpt lat="45.7780131" lon="11.7697582"><ele>128.0</ele><time>2026-05-03T05:56:15.322Z</time></trkpt><trkpt lat="45.7781073" lon="11.7696873"><ele>128.0</ele><time>2026-05-03T05:56:16.322Z</time></trkpt><trkpt lat="45.7782023" lon="11.7696169"><ele>128.0</ele><time>2026-05-03T05:56:17.321Z</time></trkpt><trkpt lat="45.7782978" lon="11.7694909"><ele>128.0</ele><time>2026-05-03T05:56:18.323Z</time></trkpt><trkpt lat="45.778414" lon="11.7693207"><ele>128.0</ele><time>2026-05-03T05:56:19.321Z</time></trkpt><trkpt lat="45.7785159" lon="11.7691651"><ele>128.0</ele><time>2026-05-03T05:56:20.321Z</time></trkpt><trkpt lat="45.7786178" lon="11.7690145"><ele>128.5</ele><time>2026-05-03T05:56:21.323Z</time></trkpt><trkpt lat="45.7787232" lon="11.7688716"><ele>129.0</ele><time>2026-05-03T05:56:22.321Z</time></trkpt><trkpt lat="45.7788315" lon="11.7687313"><ele>129.5</ele><time>2026-05-03T05:56:23.322Z</time></trkpt><trkpt lat="45.7789539" lon="11.7686078"><ele>130.0</ele><time>2026-05-03T05:56:24.322Z</time></trkpt><trkpt lat="45.7790799" lon="11.768508"><ele>130.0</ele><time>2026-05-03T05:56:25.321Z</time></trkpt><trkpt lat="45.7792077" lon="11.7684301"><ele>130.0</ele><time>2026-05-03T05:56:26.321Z</time></trkpt><trkpt lat="45.779349" lon="11.7683647"><ele>130.0</ele><time>2026-05-03T05:56:27.323Z</time></trkpt><trkpt lat="45.7794911" lon="11.7683028"><ele>130.0</ele><time>2026-05-03T05:56:28.321Z</time></trkpt><trkpt lat="45.779638" lon="11.7682389"><ele>130.0</ele><time>2026-05-03T05:56:29.321Z</time></trkpt><trkpt lat="45.7797896" lon="11.768175"><ele>130.0</ele><time>2026-05-03T05:56:30.321Z</time></trkpt><trkpt lat="45.7799325" lon="11.7681111"><ele>130.0</ele><time>2026-05-03T05:56:31.321Z</time></trkpt><trkpt lat="45.7800693" lon="11.7680466"><ele>130.0</ele><time>2026-05-03T05:56:32.323Z</time></trkpt><trkpt lat="45.7801983" lon="11.7679814"><ele>130.0</ele><time>2026-05-03T05:56:33.323Z</time></trkpt><trkpt lat="45.7803169" lon="11.7679261"><ele>130.0</ele><time>2026-05-03T05:56:34.322Z</time></trkpt><trkpt lat="45.7804304" lon="11.7678806"><ele>130.0</ele><time>2026-05-03T05:56:35.322Z</time></trkpt><trkpt lat="45.7805317" lon="11.7678291"><ele>130.0</ele><time>2026-05-03T05:56:36.323Z</time></trkpt><trkpt lat="45.7806228" lon="11.7677878"><ele>130.0</ele><time>2026-05-03T05:56:37.321Z</time></trkpt><trkpt lat="45.7807152" lon="11.7677446"><ele>130.0</ele><time>2026-05-03T05:56:38.322Z</time></trkpt><trkpt lat="45.7808121" lon="11.7677036"><ele>130.0</ele><time>2026-05-03T05:56:39.322Z</time></trkpt><trkpt lat="45.7809152" lon="11.7676483"><ele>130.0</ele><time>2026-05-03T05:56:40.322Z</time></trkpt><trkpt lat="45.7810288" lon="11.7675916"><ele>130.33333333333334</ele><time>2026-05-03T05:56:41.321Z</time></trkpt><trkpt lat="45.7811562" lon="11.76753"><ele>130.66666666666666</ele><time>2026-05-03T05:56:42.322Z</time></trkpt><trkpt lat="45.7813094" lon="11.7674598"><ele>131.0</ele><time>2026-05-03T05:56:43.322Z</time></trkpt><trkpt lat="45.7814738" lon="11.7673856"><ele>131.0</ele><time>2026-05-03T05:56:44.323Z</time></trkpt><trkpt lat="45.781646" lon="11.7673096"><ele>131.0</ele><time>2026-05-03T05:56:45.322Z</time></trkpt><trkpt lat="45.7818343" lon="11.7672204"><ele>131.0</ele><time>2026-05-03T05:56:46.322Z</time></trkpt><trkpt lat="45.7820268" lon="11.7671302"><ele>131.66666666666666</ele><time>2026-05-03T05:56:47.323Z</time></trkpt><trkpt lat="45.782225" lon="11.7670399"><ele>132.33333333333334</ele><time>2026-05-03T05:56:48.323Z</time></trkpt><trkpt lat="45.7824259" lon="11.7669416"><ele>133.0</ele><time>2026-05-03T05:56:49.322Z</time></trkpt><trkpt lat="45.7826268" lon="11.7668429"><ele>132.66666666666669</ele><time>2026-05-03T05:56:50.323Z</time></trkpt><trkpt lat="45.782818" lon="11.7667529"><ele>132.33333333333334</ele><time>2026-05-03T05:56:51.323Z</time></trkpt><trkpt lat="45.782999" lon="11.7666717"><ele>132.0</ele><time>2026-05-03T05:56:52.322Z</time></trkpt><trkpt lat="45.7831621" lon="11.7665913"><ele>132.0</ele><time>2026-05-03T05:56:53.322Z</time></trkpt><trkpt lat="45.7833304" lon="11.766513"><ele>132.0</ele><time>2026-05-03T05:56:54.322Z</time></trkpt><trkpt lat="45.7834907" lon="11.7664369"><ele>132.0</ele><time>2026-05-03T05:56:55.321Z</time></trkpt><trkpt lat="45.7836507" lon="11.766367"><ele>132.66666666666666</ele><time>2026-05-03T05:56:56.322Z</time></trkpt><trkpt lat="45.7838093" lon="11.7662862"><ele>133.33333333333331</ele><time>2026-05-03T05:56:57.322Z</time></trkpt><trkpt lat="45.7839672" lon="11.7662201"><ele>134.0</ele><time>2026-05-03T05:56:58.323Z</time></trkpt><trkpt lat="45.7841239" lon="11.7661545"><ele>134.0</ele><time>2026-05-03T05:56:59.323Z</time></trkpt><trkpt lat="45.7842718" lon="11.7660842"><ele>134.0</ele><time>2026-05-03T05:57:00.322Z</time></trkpt><trkpt lat="45.784431" lon="11.766011"><ele>134.0</ele><time>2026-05-03T05:57:01.322Z</time></trkpt><trkpt lat="45.784576" lon="11.7659408"><ele>137.33333333333331</ele><time>2026-05-03T05:57:02.323Z</time></trkpt><trkpt lat="45.7847222" lon="11.7658735"><ele>140.66666666666666</ele><time>2026-05-03T05:57:03.322Z</time></trkpt><trkpt lat="45.7848647" lon="11.7658074"><ele>144.0</ele><time>2026-05-03T05:57:04.321Z</time></trkpt><trkpt lat="45.7850102" lon="11.7657374"><ele>144.0</ele><time>2026-05-03T05:57:05.321Z</time></trkpt><trkpt lat="45.7851544" lon="11.7656704"><ele>144.0</ele><time>2026-05-03T05:57:06.323Z</time></trkpt><trkpt lat="45.7853012" lon="11.7655999"><ele>144.0</ele><time>2026-05-03T05:57:07.322Z</time></trkpt><trkpt lat="45.7854471" lon="11.7655341"><ele>144.0</ele><time>2026-05-03T05:57:08.323Z</time></trkpt><trkpt lat="45.785595" lon="11.7654637"><ele>144.0</ele><time>2026-05-03T05:57:09.323Z</time></trkpt><trkpt lat="45.785746" lon="11.7653852"><ele>144.0</ele><time>2026-05-03T05:57:10.321Z</time></trkpt><trkpt lat="45.7858896" lon="11.7653217"><ele>144.75</ele><time>2026-05-03T05:57:11.321Z</time></trkpt><trkpt lat="45.7860278" lon="11.7652565"><ele>145.5</ele><time>2026-05-03T05:57:12.323Z</time></trkpt><trkpt lat="45.7861597" lon="11.7651907"><ele>146.25</ele><time>2026-05-03T05:57:13.321Z</time></trkpt><trkpt lat="45.7862848" lon="11.7651287"><ele>147.0</ele><time>2026-05-03T05:57:14.321Z</time></trkpt><trkpt lat="45.7864021" lon="11.7650679"><ele>147.25</ele><time>2026-05-03T05:57:15.322Z</time></trkpt><trkpt lat="45.7865169" lon="11.7649941"><ele>147.5</ele><time>2026-05-03T05:57:16.322Z</time></trkpt><trkpt lat="45.7866275" lon="11.7649142"><ele>147.75</ele><time>2026-05-03T05:57:17.323Z</time></trkpt><trkpt lat="45.7867421" lon="11.7648404"><ele>148.0</ele><time>2026-05-03T05:57:18.322Z</time></trkpt><trkpt lat="45.7868635" lon="11.7647956"><ele>149.25</ele><time>2026-05-03T05:57:19.321Z</time></trkpt><trkpt lat="45.7869942" lon="11.7647626"><ele>150.5</ele><time>2026-05-03T05:57:20.323Z</time></trkpt><trkpt lat="45.7871245" lon="11.7647242"><ele>151.75</ele><time>2026-05-03T05:57:21.321Z</time></trkpt><trkpt lat="45.7872571" lon="11.7646949"><ele>153.0</ele><time>2026-05-03T05:57:22.321Z</time></trkpt><trkpt lat="45.7873965" lon="11.7646765"><ele>153.0</ele><time>2026-05-03T05:57:23.321Z</time></trkpt><trkpt lat="45.7875415" lon="11.7646386"><ele>153.0</ele><time>2026-05-03T05:57:24.323Z</time></trkpt><trkpt lat="45.7876887" lon="11.7646085"><ele>153.0</ele><time>2026-05-03T05:57:25.323Z</time></trkpt><trkpt lat="45.7878381" lon="11.7645678"><ele>153.0</ele><time>2026-05-03T05:57:26.323Z</time></trkpt><trkpt lat="45.7879901" lon="11.7645194"><ele>152.66666666666666</ele><time>2026-05-03T05:57:27.322Z</time></trkpt><trkpt lat="45.7881487" lon="11.7644655"><ele>152.33333333333331</ele><time>2026-05-03T05:57:28.322Z</time></trkpt><trkpt lat="45.7883072" lon="11.7644057"><ele>152.0</ele><time>2026-05-03T05:57:29.323Z</time></trkpt><trkpt lat="45.7884697" lon="11.7643467"><ele>152.0</ele><time>2026-05-03T05:57:30.322Z</time></trkpt><trkpt lat="45.7886466" lon="11.7642942"><ele>152.0</ele><time>2026-05-03T05:57:31.322Z</time></trkpt><trkpt lat="45.7887939" lon="11.7642019"><ele>152.0</ele><time>2026-05-03T05:57:32.322Z</time></trkpt><trkpt lat="45.7889524" lon="11.7641062"><ele>152.0</ele><time>2026-05-03T05:57:33.323Z</time></trkpt><trkpt lat="45.789113" lon="11.764007"><ele>152.0</ele><time>2026-05-03T05:57:34.322Z</time></trkpt><trkpt lat="45.7892721" lon="11.7639038"><ele>152.0</ele><time>2026-05-03T05:57:35.322Z</time></trkpt><trkpt lat="45.7894289" lon="11.7638039"><ele>152.0</ele><time>2026-05-03T05:57:36.322Z</time></trkpt><trkpt lat="45.78959" lon="11.7637135"><ele>152.0</ele><time>2026-05-03T05:57:37.323Z</time></trkpt><trkpt lat="45.7897467" lon="11.763617"><ele>152.0</ele><time>2026-05-03T05:57:38.321Z</time></trkpt><trkpt lat="45.7899071" lon="11.763519"><ele>152.0</ele><time>2026-05-03T05:57:39.321Z</time></trkpt><trkpt lat="45.7900649" lon="11.7634225"><ele>152.0</ele><time>2026-05-03T05:57:40.321Z</time></trkpt><trkpt lat="45.7902177" lon="11.7633278"><ele>152.0</ele><time>2026-05-03T05:57:41.322Z</time></trkpt><trkpt lat="45.7903729" lon="11.7632336"><ele>153.0</ele><time>2026-05-03T05:57:42.321Z</time></trkpt><trkpt lat="45.7905301" lon="11.7631328"><ele>154.0</ele><time>2026-05-03T05:57:43.323Z</time></trkpt><trkpt lat="45.7906902" lon="11.763034"><ele>155.0</ele><time>2026-05-03T05:57:44.321Z</time></trkpt><trkpt lat="45.7908414" lon="11.7629413"><ele>155.0</ele><time>2026-05-03T05:57:45.323Z</time></trkpt><trkpt lat="45.7909939" lon="11.7628484"><ele>155.0</ele><time>2026-05-03T05:57:46.322Z</time></trkpt><trkpt lat="45.7911479" lon="11.7627466"><ele>155.0</ele><time>2026-05-03T05:57:47.321Z</time></trkpt><trkpt lat="45.7912987" lon="11.7626352"><ele>155.33333333333331</ele><time>2026-05-03T05:57:48.322Z</time></trkpt><trkpt lat="45.7914383" lon="11.7625095"><ele>155.66666666666666</ele><time>2026-05-03T05:57:49.323Z</time></trkpt><trkpt lat="45.7915745" lon="11.7623782"><ele>156.0</ele><time>2026-05-03T05:57:50.323Z</time></trkpt><trkpt lat="45.7917007" lon="11.7622461"><ele>156.0</ele><time>2026-05-03T05:57:51.323Z</time></trkpt><trkpt lat="45.7918248" lon="11.7621176"><ele>156.0</ele><time>2026-05-03T05:57:52.322Z</time></trkpt><trkpt lat="45.7919472" lon="11.7619929"><ele>156.0</ele><time>2026-05-03T05:57:53.321Z</time></trkpt><trkpt lat="45.7920709" lon="11.7618657"><ele>156.5</ele><time>2026-05-03T05:57:54.322Z</time></trkpt><trkpt lat="45.7921908" lon="11.7617352"><ele>157.0</ele><time>2026-05-03T05:57:55.322Z</time></trkpt><trkpt lat="45.792309" lon="11.761609"><ele>157.5</ele><time>2026-05-03T05:57:56.323Z</time></trkpt><trkpt lat="45.7924271" lon="11.761479"><ele>158.0</ele><time>2026-05-03T05:57:57.321Z</time></trkpt><trkpt lat="45.7925474" lon="11.761355"><ele>158.0</ele><time>2026-05-03T05:57:58.323Z</time></trkpt><trkpt lat="45.792667" lon="11.761229"><ele>158.0</ele><time>2026-05-03T05:57:59.321Z</time></trkpt><trkpt lat="45.7927925" lon="11.7610956"><ele>158.0</ele><time>2026-05-03T05:58:00.322Z</time></trkpt><trkpt lat="45.7929165" lon="11.7609707"><ele>159.0</ele><time>2026-05-03T05:58:01.323Z</time></trkpt><trkpt lat="45.7930403" lon="11.7608403"><ele>160.0</ele><time>2026-05-03T05:58:02.322Z</time></trkpt><trkpt lat="45.7931704" lon="11.7607094"><ele>161.0</ele><time>2026-05-03T05:58:03.322Z</time></trkpt><trkpt lat="45.7933028" lon="11.7605795"><ele>161.0</ele><time>2026-05-03T05:58:04.322Z</time></trkpt><trkpt lat="45.7934404" lon="11.7604619"><ele>161.0</ele><time>2026-05-03T05:58:05.322Z</time></trkpt><trkpt lat="45.7935856" lon="11.7603586"><ele>161.0</ele><time>2026-05-03T05:58:06.323Z</time></trkpt><trkpt lat="45.7937373" lon="11.7602656"><ele>161.66666666666666</ele><time>2026-05-03T05:58:07.323Z</time></trkpt><trkpt lat="45.7938898" lon="11.7601881"><ele>162.33333333333334</ele><time>2026-05-03T05:58:08.323Z</time></trkpt><trkpt lat="45.7940467" lon="11.7601393"><ele>163.0</ele><time>2026-05-03T05:58:09.323Z</time></trkpt><trkpt lat="45.7942075" lon="11.7600883"><ele>164.33333333333334</ele><time>2026-05-03T05:58:10.322Z</time></trkpt><trkpt lat="45.7943671" lon="11.7600389"><ele>165.66666666666666</ele><time>2026-05-03T05:58:11.323Z</time></trkpt><trkpt lat="45.794524" lon="11.7599978"><ele>167.0</ele><time>2026-05-03T05:58:12.323Z</time></trkpt><trkpt lat="45.7946747" lon="11.7599562"><ele>167.0</ele><time>2026-05-03T05:58:13.323Z</time></trkpt><trkpt lat="45.7948252" lon="11.7599084"><ele>167.0</ele><time>2026-05-03T05:58:14.322Z</time></trkpt><trkpt lat="45.7949714" lon="11.7598632"><ele>167.0</ele><time>2026-05-03T05:58:15.322Z</time></trkpt><trkpt lat="45.7951146" lon="11.7598232"><ele>170.75</ele><time>2026-05-03T05:58:16.322Z</time></trkpt><trkpt lat="45.7952545" lon="11.7597716"><ele>174.5</ele><time>2026-05-03T05:58:17.322Z</time></trkpt><trkpt lat="45.7953804" lon="11.7597112"><ele>178.25</ele><time>2026-05-03T05:58:18.322Z</time></trkpt><trkpt lat="45.7954955" lon="11.7596267"><ele>182.0</ele><time>2026-05-03T05:58:19.322Z</time></trkpt><trkpt lat="45.7955914" lon="11.7595176"><ele>182.0</ele><time>2026-05-03T05:58:20.322Z</time></trkpt><trkpt lat="45.7956798" lon="11.7593884"><ele>182.0</ele><time>2026-05-03T05:58:21.323Z</time></trkpt><trkpt lat="45.7957676" lon="11.7592552"><ele>182.0</ele><time>2026-05-03T05:58:22.322Z</time></trkpt><trkpt lat="45.7958463" lon="11.7591215"><ele>182.0</ele><time>2026-05-03T05:58:23.323Z</time></trkpt><trkpt lat="45.7959185" lon="11.7590126"><ele>180.66666666666666</ele><time>2026-05-03T05:58:24.323Z</time></trkpt><trkpt lat="45.7959737" lon="11.7589062"><ele>179.33333333333331</ele><time>2026-05-03T05:58:25.322Z</time></trkpt><trkpt lat="45.7960123" lon="11.7588206"><ele>178.0</ele><time>2026-05-03T05:58:26.323Z</time></trkpt><trkpt lat="45.7960608" lon="11.7587384"><ele>176.66666666666666</ele><time>2026-05-03T05:58:27.322Z</time></trkpt><trkpt lat="45.7961249" lon="11.7586655"><ele>175.33333333333334</ele><time>2026-05-03T05:58:29.323Z</time></trkpt><trkpt lat="45.7962115" lon="11.758621"><ele>174.0</ele><time>2026-05-03T05:58:33.322Z</time></trkpt><trkpt lat="45.7962968" lon="11.7586368"><ele>173.5</ele><time>2026-05-03T05:58:35.322Z</time></trkpt><trkpt lat="45.7963943" lon="11.7587249"><ele>173.0</ele><time>2026-05-03T05:58:37.322Z</time></trkpt><trkpt lat="45.7964472" lon="11.7587916"><ele>172.5</ele><time>2026-05-03T05:58:38.323Z</time></trkpt><trkpt lat="45.7965055" lon="11.7588719"><ele>172.0</ele><time>2026-05-03T05:58:39.32Z</time></trkpt><trkpt lat="45.7965676" lon="11.7589576"><ele>171.5</ele><time>2026-05-03T05:58:40.322Z</time></trkpt><trkpt lat="45.7966344" lon="11.7590526"><ele>171.0</ele><time>2026-05-03T05:58:41.322Z</time></trkpt><trkpt lat="45.7967171" lon="11.7591707"><ele>171.0</ele><time>2026-05-03T05:58:42.323Z</time></trkpt><trkpt lat="45.7968059" lon="11.7593032"><ele>171.0</ele><time>2026-05-03T05:58:43.32Z</time></trkpt><trkpt lat="45.7968967" lon="11.7594381"><ele>171.0</ele><time>2026-05-03T05:58:44.322Z</time></trkpt><trkpt lat="45.7969908" lon="11.7595735"><ele>171.0</ele><time>2026-05-03T05:58:45.322Z</time></trkpt><trkpt lat="45.7970858" lon="11.7597166"><ele>171.25</ele><time>2026-05-03T05:58:46.32Z</time></trkpt><trkpt lat="45.7971777" lon="11.7598611"><ele>171.5</ele><time>2026-05-03T05:58:47.322Z</time></trkpt><trkpt lat="45.7972732" lon="11.7600031"><ele>171.75</ele><time>2026-05-03T05:58:48.322Z</time></trkpt><trkpt lat="45.7973715" lon="11.7601441"><ele>172.0</ele><time>2026-05-03T05:58:49.322Z</time></trkpt><trkpt lat="45.7974675" lon="11.7602816"><ele>173.0</ele><time>2026-05-03T05:58:50.322Z</time></trkpt><trkpt lat="45.7975613" lon="11.7604182"><ele>174.0</ele><time>2026-05-03T05:58:51.322Z</time></trkpt><trkpt lat="45.7976535" lon="11.7605604"><ele>175.0</ele><time>2026-05-03T05:58:52.323Z</time></trkpt><trkpt lat="45.7977464" lon="11.7607012"><ele>176.0</ele><time>2026-05-03T05:58:53.323Z</time></trkpt><trkpt lat="45.7978377" lon="11.7608391"><ele>176.0</ele><time>2026-05-03T05:58:54.322Z</time></trkpt><trkpt lat="45.7979297" lon="11.7609776"><ele>176.0</ele><time>2026-05-03T05:58:55.322Z</time></trkpt><trkpt lat="45.7980165" lon="11.7611208"><ele>176.0</ele><time>2026-05-03T05:58:56.322Z</time></trkpt><trkpt lat="45.798108" lon="11.7612573"><ele>176.0</ele><time>2026-05-03T05:58:57.323Z</time></trkpt><trkpt lat="45.7982031" lon="11.7613936"><ele>177.0</ele><time>2026-05-03T05:58:58.322Z</time></trkpt><trkpt lat="45.7983006" lon="11.76153"><ele>178.0</ele><time>2026-05-03T05:58:59.321Z</time></trkpt><trkpt lat="45.7983971" lon="11.7616703"><ele>179.0</ele><time>2026-05-03T05:59:00.321Z</time></trkpt><trkpt lat="45.7984944" lon="11.7618138"><ele>180.0</ele><time>2026-05-03T05:59:01.323Z</time></trkpt><trkpt lat="45.7985976" lon="11.7619597"><ele>181.0</ele><time>2026-05-03T05:59:02.322Z</time></trkpt><trkpt lat="45.7986976" lon="11.762106"><ele>182.0</ele><time>2026-05-03T05:59:03.323Z</time></trkpt><trkpt lat="45.7987963" lon="11.7622496"><ele>183.0</ele><time>2026-05-03T05:59:04.322Z</time></trkpt><trkpt lat="45.7988955" lon="11.7623991"><ele>184.0</ele><time>2026-05-03T05:59:05.322Z</time></trkpt><trkpt lat="45.7989937" lon="11.7625435"><ele>184.0</ele><time>2026-05-03T05:59:06.322Z</time></trkpt><trkpt lat="45.7990967" lon="11.7626775"><ele>184.0</ele><time>2026-05-03T05:59:07.322Z</time></trkpt><trkpt lat="45.7992085" lon="11.7627935"><ele>184.0</ele><time>2026-05-03T05:59:08.321Z</time></trkpt><trkpt lat="45.7993293" lon="11.7628889"><ele>184.0</ele><time>2026-05-03T05:59:09.322Z</time></trkpt><trkpt lat="45.7994545" lon="11.7629599"><ele>185.5</ele><time>2026-05-03T05:59:10.322Z</time></trkpt><trkpt lat="45.7995804" lon="11.7630258"><ele>187.0</ele><time>2026-05-03T05:59:11.322Z</time></trkpt><trkpt lat="45.799713" lon="11.7630899"><ele>188.5</ele><time>2026-05-03T05:59:12.322Z</time></trkpt><trkpt lat="45.7998477" lon="11.7631522"><ele>190.0</ele><time>2026-05-03T05:59:13.322Z</time></trkpt><trkpt lat="45.7999813" lon="11.7632203"><ele>190.0</ele><time>2026-05-03T05:59:14.323Z</time></trkpt><trkpt lat="45.8001153" lon="11.7632862"><ele>190.0</ele><time>2026-05-03T05:59:15.322Z</time></trkpt><trkpt lat="45.8002477" lon="11.7633472"><ele>190.0</ele><time>2026-05-03T05:59:16.323Z</time></trkpt><trkpt lat="45.800386" lon="11.763413"><ele>190.0</ele><time>2026-05-03T05:59:17.322Z</time></trkpt><trkpt lat="45.8005239" lon="11.763477"><ele>191.0</ele><time>2026-05-03T05:59:18.322Z</time></trkpt><trkpt lat="45.80065" lon="11.7635427"><ele>192.0</ele><time>2026-05-03T05:59:19.322Z</time></trkpt><trkpt lat="45.8007792" lon="11.7636103"><ele>193.0</ele><time>2026-05-03T05:59:20.321Z</time></trkpt><trkpt lat="45.8009064" lon="11.7636776"><ele>194.0</ele><time>2026-05-03T05:59:21.323Z</time></trkpt><trkpt lat="45.8010392" lon="11.7637445"><ele>194.75</ele><time>2026-05-03T05:59:22.322Z</time></trkpt><trkpt lat="45.8011745" lon="11.7638109"><ele>195.5</ele><time>2026-05-03T05:59:23.322Z</time></trkpt><trkpt lat="45.8013094" lon="11.7638761"><ele>196.25</ele><time>2026-05-03T05:59:24.323Z</time></trkpt><trkpt lat="45.8014528" lon="11.7639422"><ele>197.0</ele><time>2026-05-03T05:59:25.321Z</time></trkpt><trkpt lat="45.8015987" lon="11.7640089"><ele>197.0</ele><time>2026-05-03T05:59:26.321Z</time></trkpt><trkpt lat="45.8017371" lon="11.7640921"><ele>197.0</ele><time>2026-05-03T05:59:27.322Z</time></trkpt><trkpt lat="45.8018582" lon="11.7642004"><ele>197.0</ele><time>2026-05-03T05:59:28.32Z</time></trkpt><trkpt lat="45.8019615" lon="11.7643382"><ele>197.0</ele><time>2026-05-03T05:59:29.322Z</time></trkpt><trkpt lat="45.8020546" lon="11.7644812"><ele>198.0</ele><time>2026-05-03T05:59:30.323Z</time></trkpt><trkpt lat="45.8021505" lon="11.7646275"><ele>199.0</ele><time>2026-05-03T05:59:31.323Z</time></trkpt><trkpt lat="45.8022435" lon="11.7647776"><ele>200.0</ele><time>2026-05-03T05:59:32.322Z</time></trkpt><trkpt lat="45.8023365" lon="11.7649269"><ele>201.0</ele><time>2026-05-03T05:59:33.323Z</time></trkpt><trkpt lat="45.8024301" lon="11.7650748"><ele>201.5</ele><time>2026-05-03T05:59:34.323Z</time></trkpt><trkpt lat="45.8025217" lon="11.7652196"><ele>202.0</ele><time>2026-05-03T05:59:35.323Z</time></trkpt><trkpt lat="45.8026093" lon="11.7653529"><ele>202.5</ele><time>2026-05-03T05:59:36.323Z</time></trkpt><trkpt lat="45.8026933" lon="11.765489"><ele>203.0</ele><time>2026-05-03T05:59:37.321Z</time></trkpt><trkpt lat="45.8027645" lon="11.765634"><ele>200.5</ele><time>2026-05-03T05:59:38.323Z</time></trkpt><trkpt lat="45.8028258" lon="11.7657834"><ele>198.0</ele><time>2026-05-03T05:59:39.322Z</time></trkpt><trkpt lat="45.8028734" lon="11.7659334"><ele>195.5</ele><time>2026-05-03T05:59:40.322Z</time></trkpt><trkpt lat="45.8029109" lon="11.7660942"><ele>193.0</ele><time>2026-05-03T05:59:41.322Z</time></trkpt><trkpt lat="45.8029352" lon="11.7662551"><ele>192.5</ele><time>2026-05-03T05:59:42.322Z</time></trkpt><trkpt lat="45.8029543" lon="11.7664279"><ele>192.0</ele><time>2026-05-03T05:59:43.323Z</time></trkpt><trkpt lat="45.8029723" lon="11.7665981"><ele>191.5</ele><time>2026-05-03T05:59:44.323Z</time></trkpt><trkpt lat="45.8029957" lon="11.7667617"><ele>191.0</ele><time>2026-05-03T05:59:45.323Z</time></trkpt><trkpt lat="45.8030217" lon="11.7669347"><ele>190.75</ele><time>2026-05-03T05:59:46.322Z</time></trkpt><trkpt lat="45.8030576" lon="11.7671009"><ele>190.5</ele><time>2026-05-03T05:59:47.322Z</time></trkpt><trkpt lat="45.8031066" lon="11.7672668"><ele>190.25</ele><time>2026-05-03T05:59:48.321Z</time></trkpt><trkpt lat="45.8031615" lon="11.7674253"><ele>190.0</ele><time>2026-05-03T05:59:49.323Z</time></trkpt><trkpt lat="45.8032297" lon="11.7675859"><ele>189.25</ele><time>2026-05-03T05:59:50.323Z</time></trkpt><trkpt lat="45.803301" lon="11.7677424"><ele>188.5</ele><time>2026-05-03T05:59:51.322Z</time></trkpt><trkpt lat="45.8033748" lon="11.7679007"><ele>187.75</ele><time>2026-05-03T05:59:52.322Z</time></trkpt><trkpt lat="45.8034515" lon="11.7680647"><ele>187.0</ele><time>2026-05-03T05:59:53.322Z</time></trkpt><trkpt lat="45.8035235" lon="11.7682263"><ele>187.0</ele><time>2026-05-03T05:59:54.322Z</time></trkpt><trkpt lat="45.8035981" lon="11.7683926"><ele>187.0</ele><time>2026-05-03T05:59:55.322Z</time></trkpt><trkpt lat="45.8036716" lon="11.768565"><ele>187.0</ele><time>2026-05-03T05:59:56.323Z</time></trkpt><trkpt lat="45.8037472" lon="11.7687373"><ele>187.0</ele><time>2026-05-03T05:59:57.322Z</time></trkpt><trkpt lat="45.8038206" lon="11.7689144"><ele>186.66666666666669</ele><time>2026-05-03T05:59:58.323Z</time></trkpt><trkpt lat="45.8038993" lon="11.7691"><ele>186.33333333333334</ele><time>2026-05-03T05:59:59.322Z</time></trkpt><trkpt lat="45.8039777" lon="11.7692895"><ele>186.0</ele><time>2026-05-03T06:00:00.323Z</time></trkpt><trkpt lat="45.8040588" lon="11.7694822"><ele>185.33333333333334</ele><time>2026-05-03T06:00:01.323Z</time></trkpt><trkpt lat="45.8041394" lon="11.7696785"><ele>184.66666666666669</ele><time>2026-05-03T06:00:02.323Z</time></trkpt><trkpt lat="45.8042258" lon="11.7698758"><ele>184.0</ele><time>2026-05-03T06:00:03.323Z</time></trkpt><trkpt lat="45.8043052" lon="11.7700715"><ele>183.66666666666669</ele><time>2026-05-03T06:00:04.323Z</time></trkpt><trkpt lat="45.80438" lon="11.7702681"><ele>183.33333333333334</ele><time>2026-05-03T06:00:05.323Z</time></trkpt><trkpt lat="45.8044534" lon="11.7704681"><ele>183.0</ele><time>2026-05-03T06:00:06.323Z</time></trkpt><trkpt lat="45.8045256" lon="11.7706657"><ele>183.0</ele><time>2026-05-03T06:00:07.322Z</time></trkpt><trkpt lat="45.8045968" lon="11.7708669"><ele>183.0</ele><time>2026-05-03T06:00:08.321Z</time></trkpt><trkpt lat="45.8046713" lon="11.7710704"><ele>183.0</ele><time>2026-05-03T06:00:09.321Z</time></trkpt><trkpt lat="45.8047394" lon="11.771266"><ele>182.33333333333334</ele><time>2026-05-03T06:00:10.322Z</time></trkpt><trkpt lat="45.8048112" lon="11.7714631"><ele>181.66666666666669</ele><time>2026-05-03T06:00:11.323Z</time></trkpt><trkpt lat="45.8048852" lon="11.7716646"><ele>181.0</ele><time>2026-05-03T06:00:12.322Z</time></trkpt><trkpt lat="45.8049578" lon="11.7718651"><ele>180.0</ele><time>2026-05-03T06:00:13.322Z</time></trkpt><trkpt lat="45.8050286" lon="11.7720644"><ele>179.0</ele><time>2026-05-03T06:00:14.322Z</time></trkpt><trkpt lat="45.8050971" lon="11.7722671"><ele>178.0</ele><time>2026-05-03T06:00:15.323Z</time></trkpt><trkpt lat="45.805167" lon="11.7724678"><ele>177.33333333333334</ele><time>2026-05-03T06:00:16.323Z</time></trkpt><trkpt lat="45.8052412" lon="11.7726687"><ele>176.66666666666666</ele><time>2026-05-03T06:00:17.322Z</time></trkpt><trkpt lat="45.8053099" lon="11.7728686"><ele>176.0</ele><time>2026-05-03T06:00:18.322Z</time></trkpt><trkpt lat="45.80538" lon="11.7730586"><ele>176.0</ele><time>2026-05-03T06:00:19.322Z</time></trkpt><trkpt lat="45.8054481" lon="11.7732428"><ele>176.0</ele><time>2026-05-03T06:00:20.323Z</time></trkpt><trkpt lat="45.8055151" lon="11.7734271"><ele>176.0</ele><time>2026-05-03T06:00:21.321Z</time></trkpt><trkpt lat="45.8055823" lon="11.7736148"><ele>176.0</ele><time>2026-05-03T06:00:22.322Z</time></trkpt><trkpt lat="45.8056531" lon="11.7738101"><ele>176.0</ele><time>2026-05-03T06:00:23.322Z</time></trkpt><trkpt lat="45.8057213" lon="11.7740028"><ele>176.0</ele><time>2026-05-03T06:00:24.321Z</time></trkpt><trkpt lat="45.8057884" lon="11.7741996"><ele>176.0</ele><time>2026-05-03T06:00:25.322Z</time></trkpt><trkpt lat="45.8058603" lon="11.7743917"><ele>176.0</ele><time>2026-05-03T06:00:26.322Z</time></trkpt><trkpt lat="45.8059261" lon="11.7745759"><ele>176.0</ele><time>2026-05-03T06:00:27.322Z</time></trkpt><trkpt lat="45.8059847" lon="11.7747603"><ele>176.0</ele><time>2026-05-03T06:00:28.323Z</time></trkpt><trkpt lat="45.80604" lon="11.7749397"><ele>176.0</ele><time>2026-05-03T06:00:29.321Z</time></trkpt><trkpt lat="45.8060985" lon="11.7751154"><ele>175.75</ele><time>2026-05-03T06:00:30.323Z</time></trkpt><trkpt lat="45.8061562" lon="11.7752878"><ele>175.5</ele><time>2026-05-03T06:00:31.323Z</time></trkpt><trkpt lat="45.8062159" lon="11.7754611"><ele>175.25</ele><time>2026-05-03T06:00:32.322Z</time></trkpt><trkpt lat="45.8062709" lon="11.7756284"><ele>175.0</ele><time>2026-05-03T06:00:33.323Z</time></trkpt><trkpt lat="45.8063242" lon="11.775795"><ele>175.0</ele><time>2026-05-03T06:00:34.323Z</time></trkpt><trkpt lat="45.8063807" lon="11.7759624"><ele>175.0</ele><time>2026-05-03T06:00:35.322Z</time></trkpt><trkpt lat="45.8064357" lon="11.7761229"><ele>175.0</ele><time>2026-05-03T06:00:36.322Z</time></trkpt><trkpt lat="45.8064863" lon="11.7762846"><ele>175.0</ele><time>2026-05-03T06:00:37.322Z</time></trkpt><trkpt lat="45.8065393" lon="11.7764542"><ele>174.75</ele><time>2026-05-03T06:00:38.322Z</time></trkpt><trkpt lat="45.8065922" lon="11.7766196"><ele>174.5</ele><time>2026-05-03T06:00:39.321Z</time></trkpt><trkpt lat="45.8066538" lon="11.7768"><ele>174.25</ele><time>2026-05-03T06:00:40.323Z</time></trkpt><trkpt lat="45.8067049" lon="11.7769767"><ele>174.0</ele><time>2026-05-03T06:00:41.323Z</time></trkpt><trkpt lat="45.8067638" lon="11.7771591"><ele>173.75</ele><time>2026-05-03T06:00:42.323Z</time></trkpt><trkpt lat="45.8068266" lon="11.7773413"><ele>173.5</ele><time>2026-05-03T06:00:43.323Z</time></trkpt><trkpt lat="45.8068852" lon="11.777527"><ele>173.25</ele><time>2026-05-03T06:00:44.322Z</time></trkpt><trkpt lat="45.8069466" lon="11.7777133"><ele>173.0</ele><time>2026-05-03T06:00:45.322Z</time></trkpt><trkpt lat="45.8070059" lon="11.7778968"><ele>173.0</ele><time>2026-05-03T06:00:46.322Z</time></trkpt><trkpt lat="45.8070611" lon="11.7780797"><ele>173.0</ele><time>2026-05-03T06:00:47.322Z</time></trkpt><trkpt lat="45.8071182" lon="11.7782519"><ele>173.0</ele><time>2026-05-03T06:00:48.323Z</time></trkpt><trkpt lat="45.8071692" lon="11.7784162"><ele>173.0</ele><time>2026-05-03T06:00:49.323Z</time></trkpt><trkpt lat="45.8072223" lon="11.778574"><ele>172.5</ele><time>2026-05-03T06:00:50.322Z</time></trkpt><trkpt lat="45.807272" lon="11.7787299"><ele>172.0</ele><time>2026-05-03T06:00:51.321Z</time></trkpt><trkpt lat="45.8073181" lon="11.7788814"><ele>171.5</ele><time>2026-05-03T06:00:52.321Z</time></trkpt><trkpt lat="45.8073658" lon="11.7790292"><ele>171.0</ele><time>2026-05-03T06:00:53.32Z</time></trkpt><trkpt lat="45.8074151" lon="11.779173"><ele>171.0</ele><time>2026-05-03T06:00:54.322Z</time></trkpt><trkpt lat="45.807463" lon="11.7793183"><ele>171.0</ele><time>2026-05-03T06:00:55.323Z</time></trkpt><trkpt lat="45.8075084" lon="11.7794654"><ele>171.0</ele><time>2026-05-03T06:00:56.323Z</time></trkpt><trkpt lat="45.8075512" lon="11.7796152"><ele>171.0</ele><time>2026-05-03T06:00:57.322Z</time></trkpt><trkpt lat="45.8075985" lon="11.779763"><ele>171.0</ele><time>2026-05-03T06:00:58.321Z</time></trkpt><trkpt lat="45.8076469" lon="11.7799111"><ele>171.0</ele><time>2026-05-03T06:00:59.322Z</time></trkpt><trkpt lat="45.8076955" lon="11.7800543"><ele>171.0</ele><time>2026-05-03T06:01:00.323Z</time></trkpt><trkpt lat="45.8077452" lon="11.7802099"><ele>171.0</ele><time>2026-05-03T06:01:01.322Z</time></trkpt><trkpt lat="45.8077977" lon="11.7803748"><ele>172.5</ele><time>2026-05-03T06:01:02.323Z</time></trkpt><trkpt lat="45.807852" lon="11.7805432"><ele>174.0</ele><time>2026-05-03T06:01:03.322Z</time></trkpt><trkpt lat="45.8079084" lon="11.7807214"><ele>175.5</ele><time>2026-05-03T06:01:04.323Z</time></trkpt><trkpt lat="45.8079671" lon="11.7809052"><ele>177.0</ele><time>2026-05-03T06:01:05.323Z</time></trkpt><trkpt lat="45.8080285" lon="11.7810948"><ele>177.0</ele><time>2026-05-03T06:01:06.322Z</time></trkpt><trkpt lat="45.8080912" lon="11.7812837"><ele>177.0</ele><time>2026-05-03T06:01:07.321Z</time></trkpt><trkpt lat="45.8081535" lon="11.7814791"><ele>177.0</ele><time>2026-05-03T06:01:08.323Z</time></trkpt><trkpt lat="45.8082191" lon="11.7816817"><ele>176.66666666666666</ele><time>2026-05-03T06:01:09.322Z</time></trkpt><trkpt lat="45.8082889" lon="11.7818894"><ele>176.33333333333331</ele><time>2026-05-03T06:01:10.322Z</time></trkpt><trkpt lat="45.8083561" lon="11.7821051"><ele>176.0</ele><time>2026-05-03T06:01:11.321Z</time></trkpt><trkpt lat="45.8084286" lon="11.7823285"><ele>178.66666666666666</ele><time>2026-05-03T06:01:12.322Z</time></trkpt><trkpt lat="45.8085056" lon="11.7825651"><ele>181.33333333333334</ele><time>2026-05-03T06:01:13.323Z</time></trkpt><trkpt lat="45.8085808" lon="11.7828096"><ele>184.0</ele><time>2026-05-03T06:01:14.322Z</time></trkpt><trkpt lat="45.8086588" lon="11.7830507"><ele>184.0</ele><time>2026-05-03T06:01:15.323Z</time></trkpt><trkpt lat="45.8087348" lon="11.7832904"><ele>184.0</ele><time>2026-05-03T06:01:16.322Z</time></trkpt><trkpt lat="45.8088114" lon="11.783531"><ele>184.0</ele><time>2026-05-03T06:01:17.322Z</time></trkpt><trkpt lat="45.808889" lon="11.783778"><ele>182.66666666666669</ele><time>2026-05-03T06:01:18.32Z</time></trkpt><trkpt lat="45.8089739" lon="11.7840233"><ele>181.33333333333334</ele><time>2026-05-03T06:01:19.322Z</time></trkpt><trkpt lat="45.8090507" lon="11.7842599"><ele>180.0</ele><time>2026-05-03T06:01:20.322Z</time></trkpt><trkpt lat="45.8091163" lon="11.7844789"><ele>179.33333333333334</ele><time>2026-05-03T06:01:21.323Z</time></trkpt><trkpt lat="45.8091841" lon="11.7846987"><ele>178.66666666666669</ele><time>2026-05-03T06:01:22.321Z</time></trkpt><trkpt lat="45.8092529" lon="11.78492"><ele>178.0</ele><time>2026-05-03T06:01:23.322Z</time></trkpt><trkpt lat="45.8093224" lon="11.7851362"><ele>180.0</ele><time>2026-05-03T06:01:24.321Z</time></trkpt><trkpt lat="45.8093919" lon="11.7853533"><ele>182.0</ele><time>2026-05-03T06:01:25.322Z</time></trkpt><trkpt lat="45.8094609" lon="11.7855708"><ele>184.0</ele><time>2026-05-03T06:01:26.323Z</time></trkpt><trkpt lat="45.8095322" lon="11.7857826"><ele>184.0</ele><time>2026-05-03T06:01:27.322Z</time></trkpt><trkpt lat="45.8095963" lon="11.7859922"><ele>184.0</ele><time>2026-05-03T06:01:28.322Z</time></trkpt><trkpt lat="45.8096584" lon="11.7861922"><ele>184.0</ele><time>2026-05-03T06:01:29.322Z</time></trkpt><trkpt lat="45.8097269" lon="11.7863903"><ele>183.0</ele><time>2026-05-03T06:01:30.323Z</time></trkpt><trkpt lat="45.8097929" lon="11.7865878"><ele>182.0</ele><time>2026-05-03T06:01:31.322Z</time></trkpt><trkpt lat="45.8098675" lon="11.7867777"><ele>181.0</ele><time>2026-05-03T06:01:32.323Z</time></trkpt><trkpt lat="45.8099494" lon="11.7869647"><ele>181.33333333333334</ele><time>2026-05-03T06:01:33.323Z</time></trkpt><trkpt lat="45.8100397" lon="11.7871399"><ele>181.66666666666666</ele><time>2026-05-03T06:01:34.323Z</time></trkpt><trkpt lat="45.8101431" lon="11.7873015"><ele>182.0</ele><time>2026-05-03T06:01:35.322Z</time></trkpt><trkpt lat="45.8102544" lon="11.7874537"><ele>182.0</ele><time>2026-05-03T06:01:36.322Z</time></trkpt><trkpt lat="45.8103677" lon="11.7875942"><ele>182.0</ele><time>2026-05-03T06:01:37.323Z</time></trkpt><trkpt lat="45.8104859" lon="11.7877333"><ele>182.0</ele><time>2026-05-03T06:01:38.322Z</time></trkpt><trkpt lat="45.8105996" lon="11.7878721"><ele>181.75</ele><time>2026-05-03T06:01:39.322Z</time></trkpt><trkpt lat="45.8107088" lon="11.788004"><ele>181.5</ele><time>2026-05-03T06:01:40.323Z</time></trkpt><trkpt lat="45.8108239" lon="11.7881407"><ele>181.25</ele><time>2026-05-03T06:01:41.323Z</time></trkpt><trkpt lat="45.8109367" lon="11.7882718"><ele>181.0</ele><time>2026-05-03T06:01:42.323Z</time></trkpt><trkpt lat="45.8110462" lon="11.7883979"><ele>181.75</ele><time>2026-05-03T06:01:43.322Z</time></trkpt><trkpt lat="45.8111501" lon="11.7885156"><ele>182.5</ele><time>2026-05-03T06:01:44.323Z</time></trkpt><trkpt lat="45.8112449" lon="11.7886283"><ele>183.25</ele><time>2026-05-03T06:01:45.323Z</time></trkpt><trkpt lat="45.8113397" lon="11.7887342"><ele>184.0</ele><time>2026-05-03T06:01:46.323Z</time></trkpt><trkpt lat="45.8114394" lon="11.7888476"><ele>184.0</ele><time>2026-05-03T06:01:47.323Z</time></trkpt><trkpt lat="45.8115454" lon="11.7889657"><ele>184.0</ele><time>2026-05-03T06:01:48.323Z</time></trkpt><trkpt lat="45.8116504" lon="11.7890891"><ele>184.0</ele><time>2026-05-03T06:01:49.323Z</time></trkpt><trkpt lat="45.8117474" lon="11.7892038"><ele>184.0</ele><time>2026-05-03T06:01:50.323Z</time></trkpt><trkpt lat="45.81184" lon="11.7893119"><ele>185.25</ele><time>2026-05-03T06:01:51.322Z</time></trkpt><trkpt lat="45.8119305" lon="11.7894195"><ele>186.5</ele><time>2026-05-03T06:01:52.321Z</time></trkpt><trkpt lat="45.8120248" lon="11.7895242"><ele>187.75</ele><time>2026-05-03T06:01:53.322Z</time></trkpt><trkpt lat="45.8121095" lon="11.7896237"><ele>189.0</ele><time>2026-05-03T06:01:54.323Z</time></trkpt><trkpt lat="45.8121908" lon="11.7897174"><ele>189.0</ele><time>2026-05-03T06:01:55.322Z</time></trkpt><trkpt lat="45.8122768" lon="11.7897812"><ele>189.0</ele><time>2026-05-03T06:01:56.323Z</time></trkpt><trkpt lat="45.8123698" lon="11.7897994"><ele>189.0</ele><time>2026-05-03T06:01:57.323Z</time></trkpt><trkpt lat="45.8124683" lon="11.7897885"><ele>189.0</ele><time>2026-05-03T06:01:58.323Z</time></trkpt><trkpt lat="45.8125669" lon="11.7897875"><ele>189.0</ele><time>2026-05-03T06:01:59.322Z</time></trkpt><trkpt lat="45.8126555" lon="11.7898147"><ele>190.33333333333334</ele><time>2026-05-03T06:02:00.323Z</time></trkpt><trkpt lat="45.8127216" lon="11.7898454"><ele>191.66666666666669</ele><time>2026-05-03T06:02:01.323Z</time></trkpt><trkpt lat="45.8128025" lon="11.7898301"><ele>193.0</ele><time>2026-05-03T06:02:03.322Z</time></trkpt><trkpt lat="45.8127701" lon="11.7897179"><ele>194.33333333333334</ele><time>2026-05-03T06:02:06.323Z</time></trkpt><trkpt lat="45.8127385" lon="11.7896299"><ele>195.66666666666669</ele><time>2026-05-03T06:02:08.323Z</time></trkpt><trkpt lat="45.8127583" lon="11.789538"><ele>197.0</ele><time>2026-05-03T06:02:10.322Z</time></trkpt><trkpt lat="45.8127767" lon="11.7893613"><ele>197.0</ele><time>2026-05-03T06:02:14.321Z</time></trkpt><trkpt lat="45.8125514" lon="11.7895504"><ele>189.0</ele><time>2026-05-03T06:03:03.542Z</time></trkpt></trkseg></trk></gpx>